createdAt,value
2018-09-23T00:00:44.066Z,11.80
2018-09-23T00:03:12.507Z,11.80
2018-09-23T00:05:40.933Z,11.80
2018-09-23T00:08:09.405Z,11.90
2018-09-23T00:10:37.839Z,11.80
2018-09-23T00:13:06.457Z,11.80
2018-09-23T00:15:34.903Z,11.70
2018-09-23T00:18:03.345Z,11.80
2018-09-23T00:20:31.770Z,11.70
2018-09-23T00:23:00.357Z,11.70
2018-09-23T00:25:28.778Z,11.60
2018-09-23T00:27:57.209Z,11.60
2018-09-23T00:30:25.643Z,11.60
2018-09-23T00:32:54.106Z,11.50
2018-09-23T00:35:22.522Z,11.50
2018-09-23T00:37:50.970Z,11.50
2018-09-23T00:40:19.395Z,11.50
2018-09-23T00:42:47.855Z,11.50
2018-09-23T00:45:16.277Z,11.50
2018-09-23T00:47:44.736Z,11.50
2018-09-23T00:50:13.203Z,11.50
2018-09-23T00:52:41.646Z,11.50
2018-09-23T00:55:10.095Z,11.50
2018-09-23T00:57:38.542Z,11.60
2018-09-23T01:00:07.281Z,11.60
2018-09-23T01:02:35.826Z,11.50
2018-09-23T01:05:04.290Z,11.40
2018-09-23T01:07:32.733Z,11.50
2018-09-23T01:10:01.170Z,11.50
2018-09-23T01:12:29.722Z,11.40
2018-09-23T01:14:58.253Z,11.40
2018-09-23T01:17:26.733Z,11.40
2018-09-23T01:19:55.197Z,11.40
2018-09-23T01:22:23.694Z,11.50
2018-09-23T01:24:52.190Z,11.50
2018-09-23T01:27:20.709Z,11.60
2018-09-23T01:29:49.167Z,11.60
2018-09-23T01:32:17.661Z,11.60
2018-09-23T01:34:46.124Z,11.60
2018-09-23T01:37:14.611Z,11.60
2018-09-23T01:39:43.102Z,11.60
2018-09-23T01:42:11.587Z,11.60
2018-09-23T01:44:40.070Z,11.70
2018-09-23T01:47:08.523Z,11.70
2018-09-23T01:49:36.994Z,11.70
2018-09-23T01:52:05.462Z,11.70
2018-09-23T01:54:33.931Z,11.70
2018-09-23T01:57:02.390Z,11.70
2018-09-23T01:59:30.903Z,11.70
2018-09-23T02:01:59.402Z,11.70
2018-09-23T02:04:27.877Z,11.60
2018-09-23T02:06:56.694Z,11.60
2018-09-23T02:09:25.163Z,11.50
2018-09-23T02:11:53.632Z,11.50
2018-09-23T02:14:22.146Z,11.40
2018-09-23T02:16:50.634Z,11.40
2018-09-23T02:19:19.153Z,11.40
2018-09-23T02:21:47.614Z,11.40
2018-09-23T02:24:16.110Z,11.40
2018-09-23T02:26:44.593Z,11.50
2018-09-23T02:29:13.075Z,11.50
2018-09-23T02:31:41.524Z,11.50
2018-09-23T02:34:10.043Z,11.50
2018-09-23T02:36:38.514Z,11.50
2018-09-23T02:39:08.839Z,11.50
2018-09-23T02:41:37.297Z,11.60
2018-09-23T02:44:05.810Z,11.60
2018-09-23T02:46:34.346Z,11.70
2018-09-23T02:49:03.004Z,11.70
2018-09-23T02:51:31.472Z,11.70
2018-09-23T02:53:59.965Z,11.70
2018-09-23T02:56:28.393Z,11.70
2018-09-23T02:58:56.874Z,11.70
2018-09-23T03:01:25.514Z,11.70
2018-09-23T03:03:54.115Z,11.70
2018-09-23T03:06:22.555Z,11.70
2018-09-23T03:08:51.502Z,11.70
2018-09-23T03:11:19.944Z,11.70
2018-09-23T03:13:48.406Z,11.70
2018-09-23T03:16:16.923Z,11.70
2018-09-23T03:18:45.544Z,11.70
2018-09-23T03:21:14.554Z,11.70
2018-09-23T03:23:43.026Z,11.80
2018-09-23T03:26:11.475Z,11.80
2018-09-23T03:28:39.939Z,11.80
2018-09-23T03:31:08.690Z,11.80
2018-09-23T03:33:38.038Z,11.90
2018-09-23T03:36:06.563Z,11.90
2018-09-23T03:38:35.062Z,11.90
2018-09-23T03:41:03.503Z,11.90
2018-09-23T03:43:31.959Z,12.00
2018-09-23T03:46:00.407Z,12.10
2018-09-23T03:48:28.882Z,12.10
2018-09-23T03:50:57.389Z,12.10
2018-09-23T03:53:25.855Z,12.10
2018-09-23T03:55:54.318Z,12.20
2018-09-23T03:58:22.796Z,12.20
2018-09-23T04:00:51.530Z,12.20
2018-09-23T04:03:20.114Z,12.20
2018-09-23T04:05:48.572Z,12.20
2018-09-23T04:08:17.130Z,12.20
2018-09-23T04:10:45.590Z,12.20
2018-09-23T04:13:14.054Z,12.20
2018-09-23T04:15:42.530Z,12.30
2018-09-23T04:18:11.018Z,12.30
2018-09-23T04:20:39.457Z,12.30
2018-09-23T04:23:07.877Z,12.30
2018-09-23T04:25:36.297Z,12.40
2018-09-23T04:28:04.725Z,12.40
2018-09-23T04:30:33.146Z,12.50
2018-09-23T04:33:01.552Z,12.50
2018-09-23T04:35:30.018Z,12.50
2018-09-23T04:37:58.438Z,12.50
2018-09-23T04:40:26.854Z,12.60
2018-09-23T04:42:55.255Z,12.60
2018-09-23T04:45:23.695Z,12.60
2018-09-23T04:47:52.097Z,12.60
2018-09-23T04:50:21.506Z,12.70
2018-09-23T04:52:49.923Z,12.60
2018-09-23T04:55:18.420Z,12.70
2018-09-23T04:57:46.773Z,12.70
2018-09-23T05:00:15.236Z,12.80
2018-09-23T05:02:43.614Z,12.80
2018-09-23T05:05:12.046Z,12.80
2018-09-23T05:07:40.450Z,12.80
2018-09-23T05:10:08.881Z,12.80
2018-09-23T05:12:37.289Z,12.90
2018-09-23T05:15:06.461Z,12.90
2018-09-23T05:17:34.992Z,12.90
2018-09-23T05:20:03.505Z,13.00
2018-09-23T05:22:31.955Z,13.00
2018-09-23T05:25:00.531Z,13.10
2018-09-23T05:27:28.970Z,13.10
2018-09-23T05:29:57.429Z,13.10
2018-09-23T05:32:25.892Z,13.20
2018-09-23T05:34:54.359Z,13.20
2018-09-23T05:37:22.806Z,13.20
2018-09-23T05:39:51.262Z,13.30
2018-09-23T05:42:19.741Z,13.30
2018-09-23T05:44:48.190Z,13.30
2018-09-23T05:47:16.778Z,13.40
2018-09-23T05:49:45.238Z,13.40
2018-09-23T05:52:13.668Z,13.40
2018-09-23T05:54:42.110Z,13.40
2018-09-23T05:57:10.558Z,13.50
2018-09-23T05:59:39.007Z,13.50
2018-09-23T06:02:07.455Z,13.60
2018-09-23T06:04:35.961Z,13.60
2018-09-23T06:07:04.413Z,13.60
2018-09-23T06:09:32.866Z,13.70
2018-09-23T06:12:01.290Z,13.70
2018-09-23T06:14:29.745Z,13.80
2018-09-23T06:16:58.222Z,13.80
2018-09-23T06:19:26.679Z,13.90
2018-09-23T06:21:55.098Z,13.90
2018-09-23T06:24:23.558Z,14.00
2018-09-23T06:26:51.993Z,14.10
2018-09-23T06:29:20.422Z,14.20
2018-09-23T06:31:48.907Z,14.20
2018-09-23T06:34:17.346Z,14.30
2018-09-23T06:36:45.857Z,14.40
2018-09-23T06:39:14.358Z,14.40
2018-09-23T06:41:42.821Z,14.50
2018-09-23T06:44:11.285Z,14.60
2018-09-23T06:46:39.742Z,14.70
2018-09-23T06:49:08.173Z,14.70
2018-09-23T06:51:36.633Z,14.80
2018-09-23T06:54:05.078Z,14.90
2018-09-23T06:56:33.558Z,15.00
2018-09-23T06:59:01.985Z,15.00
2018-09-23T07:01:30.442Z,15.10
2018-09-23T07:03:58.883Z,15.20
2018-09-23T07:06:27.334Z,15.20
2018-09-23T07:08:55.764Z,15.30
2018-09-23T07:11:24.234Z,15.30
2018-09-23T07:13:52.657Z,15.30
2018-09-23T07:16:21.093Z,15.40
2018-09-23T07:18:49.494Z,15.40
2018-09-23T07:21:17.918Z,15.50
2018-09-23T07:23:46.342Z,15.50
2018-09-23T07:26:15.005Z,15.50
2018-09-23T07:28:43.218Z,15.50
2018-09-23T07:31:11.694Z,15.60
2018-09-23T07:33:40.102Z,15.60
2018-09-23T07:36:08.534Z,15.60
2018-09-23T07:38:36.933Z,15.70
2018-09-23T07:41:05.369Z,15.70
2018-09-23T07:43:33.757Z,15.70
2018-09-23T07:46:02.185Z,15.70
2018-09-23T07:48:30.590Z,15.80
2018-09-23T07:50:59.056Z,15.80
2018-09-23T07:53:27.462Z,15.80
2018-09-23T07:55:55.885Z,15.90
2018-09-23T07:58:24.286Z,16.00
2018-09-23T08:00:52.737Z,15.90
2018-09-23T08:03:21.174Z,16.00
2018-09-23T08:05:49.562Z,16.10
2018-09-23T08:08:17.962Z,16.10
2018-09-23T08:10:46.425Z,16.10
2018-09-23T08:13:14.980Z,16.20
2018-09-23T08:15:43.347Z,16.20
2018-09-23T08:18:11.790Z,16.30
2018-09-23T08:20:40.288Z,16.30
2018-09-23T08:23:08.688Z,16.30
2018-09-23T08:25:37.153Z,16.40
2018-09-23T08:28:05.566Z,16.40
2018-09-23T08:30:33.991Z,16.40
2018-09-23T08:33:02.444Z,16.50
2018-09-23T08:35:30.870Z,16.50
2018-09-23T08:37:59.278Z,16.50
2018-09-23T08:40:27.723Z,16.60
2018-09-23T08:42:56.205Z,16.60
2018-09-23T08:45:24.599Z,16.60
2018-09-23T08:47:53.058Z,16.60
2018-09-23T08:50:21.460Z,16.60
2018-09-23T08:52:49.894Z,16.60
2018-09-23T08:55:18.289Z,16.70
2018-09-23T08:57:46.769Z,16.70
2018-09-23T09:00:15.177Z,16.70
2018-09-23T09:02:43.598Z,16.70
2018-09-23T09:05:12.000Z,16.70
2018-09-23T09:07:40.437Z,16.70
2018-09-23T09:10:08.833Z,16.70
2018-09-23T09:12:37.259Z,16.70
2018-09-23T09:15:05.778Z,16.80
2018-09-23T09:17:34.234Z,16.80
2018-09-23T09:20:02.815Z,16.80
2018-09-23T09:22:31.302Z,16.90
2018-09-23T09:24:59.745Z,16.80
2018-09-23T09:27:28.203Z,16.80
2018-09-23T09:29:56.630Z,16.90
2018-09-23T09:32:25.211Z,16.90
2018-09-23T09:34:53.661Z,16.90
2018-09-23T09:37:22.122Z,17.00
2018-09-23T09:39:50.553Z,17.10
2018-09-23T09:42:19.014Z,17.00
2018-09-23T09:44:47.451Z,17.10
2018-09-23T09:47:15.934Z,17.10
2018-09-23T09:49:44.374Z,17.10
2018-09-23T09:52:12.834Z,17.10
2018-09-23T09:54:41.278Z,17.20
2018-09-23T09:57:09.726Z,17.20
2018-09-23T09:59:38.175Z,17.20
2018-09-23T10:02:06.705Z,17.20
2018-09-23T10:04:35.148Z,17.20
2018-09-23T10:07:03.614Z,17.20
2018-09-23T10:09:32.045Z,17.20
2018-09-23T10:12:00.522Z,17.20
2018-09-23T10:14:28.961Z,17.20
2018-09-23T10:16:57.402Z,17.30
2018-09-23T10:19:25.798Z,17.30
2018-09-23T10:21:54.222Z,17.30
2018-09-23T10:24:22.634Z,17.30
2018-09-23T10:26:51.046Z,17.40
2018-09-23T10:29:20.316Z,17.40
2018-09-23T10:31:48.757Z,17.30
2018-09-23T10:34:17.185Z,17.40
2018-09-23T10:36:45.659Z,17.40
2018-09-23T10:39:14.083Z,17.40
2018-09-23T10:41:42.479Z,17.40
2018-09-23T10:44:10.897Z,17.40
2018-09-23T10:46:39.402Z,17.50
2018-09-23T10:49:07.894Z,17.50
2018-09-23T10:51:36.303Z,17.50
2018-09-23T10:54:04.735Z,17.50
2018-09-23T10:56:33.125Z,17.50
2018-09-23T10:59:01.574Z,17.50
2018-09-23T11:01:29.993Z,17.40
2018-09-23T11:03:58.505Z,17.40
2018-09-23T11:06:26.838Z,17.50
2018-09-23T11:08:55.257Z,17.50
2018-09-23T11:11:23.704Z,17.50
2018-09-23T11:13:52.125Z,17.60
2018-09-23T11:16:20.655Z,17.60
2018-09-23T11:18:49.082Z,17.70
2018-09-23T11:21:17.486Z,17.80
2018-09-23T11:23:45.914Z,17.80
2018-09-23T11:26:14.329Z,17.90
2018-09-23T11:28:42.743Z,18.00
2018-09-23T11:31:11.155Z,18.10
2018-09-23T11:33:39.581Z,18.10
2018-09-23T11:36:07.993Z,18.20
2018-09-23T11:38:36.426Z,18.30
2018-09-23T11:41:04.859Z,18.30
2018-09-23T11:43:33.277Z,18.30
2018-09-23T11:46:01.677Z,18.30
2018-09-23T11:48:30.107Z,18.30
2018-09-23T11:50:58.512Z,18.30
2018-09-23T11:53:26.946Z,18.40
2018-09-23T11:55:55.417Z,18.50
2018-09-23T11:58:23.885Z,18.70
2018-09-23T12:00:52.318Z,18.80
2018-09-23T12:03:20.738Z,18.80
2018-09-23T12:05:49.185Z,18.80
2018-09-23T12:08:17.641Z,18.70
2018-09-23T12:10:46.103Z,18.80
2018-09-23T12:13:14.523Z,18.90
2018-09-23T12:15:43.027Z,19.00
2018-09-23T12:18:11.397Z,19.20
2018-09-23T12:20:39.922Z,19.30
2018-09-23T12:23:08.373Z,19.30
2018-09-23T12:25:36.800Z,19.40
2018-09-23T12:28:05.266Z,19.30
2018-09-23T12:30:33.668Z,19.30
2018-09-23T12:33:02.345Z,19.20
2018-09-23T12:35:30.786Z,19.20
2018-09-23T12:37:59.251Z,19.10
2018-09-23T12:40:27.730Z,19.30
2018-09-23T12:42:56.190Z,19.40
2018-09-23T12:45:24.607Z,19.40
2018-09-23T12:47:53.042Z,19.40
2018-09-23T12:50:21.502Z,19.50
2018-09-23T12:52:49.938Z,19.40
2018-09-23T12:55:18.370Z,19.50
2018-09-23T12:57:46.795Z,19.50
2018-09-23T13:00:16.524Z,19.60
2018-09-23T13:02:44.935Z,19.60
2018-09-23T13:05:13.358Z,19.60
2018-09-23T13:07:41.753Z,19.70
2018-09-23T13:10:10.195Z,20.20
2018-09-23T13:12:38.635Z,20.90
2018-09-23T13:15:07.120Z,20.50
2018-09-23T13:17:35.539Z,20.40
2018-09-23T13:20:04.126Z,20.20
2018-09-23T13:22:32.530Z,19.80
2018-09-23T13:25:00.951Z,19.80
2018-09-23T13:27:29.342Z,19.80
2018-09-23T13:29:57.793Z,19.70
2018-09-23T13:32:26.202Z,19.80
2018-09-23T13:34:54.627Z,19.80
2018-09-23T13:37:23.041Z,19.70
2018-09-23T13:39:51.467Z,19.70
2018-09-23T13:42:19.889Z,19.70
2018-09-23T13:44:48.310Z,19.70
2018-09-23T13:47:16.721Z,19.60
2018-09-23T13:49:45.150Z,19.60
2018-09-23T13:52:13.569Z,19.50
2018-09-23T13:54:41.981Z,19.50
2018-09-23T13:57:10.429Z,19.50
2018-09-23T13:59:38.862Z,19.50
2018-09-23T14:02:07.266Z,19.60
2018-09-23T14:04:35.706Z,19.60
2018-09-23T14:07:04.129Z,19.60
2018-09-23T14:09:32.554Z,19.60
2018-09-23T14:12:00.956Z,19.60
2018-09-23T14:14:29.395Z,19.60
2018-09-23T14:16:57.822Z,19.50
2018-09-23T14:19:26.422Z,19.40
2018-09-23T14:21:55.110Z,19.40
2018-09-23T14:24:23.571Z,19.30
2018-09-23T14:26:51.966Z,19.00
2018-09-23T14:29:20.389Z,18.70
2018-09-23T14:31:48.790Z,18.50
2018-09-23T14:34:17.222Z,18.40
2018-09-23T14:36:45.631Z,18.30
2018-09-23T14:39:14.045Z,18.20
2018-09-23T14:41:42.484Z,18.20
2018-09-23T14:44:10.881Z,18.10
2018-09-23T14:46:39.301Z,18.10
2018-09-23T14:49:07.705Z,18.10
2018-09-23T14:51:36.134Z,18.10
2018-09-23T14:54:04.584Z,17.50
2018-09-23T14:56:33.031Z,16.90
2018-09-23T14:59:01.458Z,16.60
2018-09-23T15:01:29.905Z,16.50
2018-09-23T15:03:58.397Z,16.40
2018-09-23T15:06:26.832Z,16.40
2018-09-23T15:08:55.266Z,16.40
2018-09-23T15:11:23.705Z,16.40
2018-09-23T15:13:52.175Z,16.30
2018-09-23T15:16:20.634Z,16.30
2018-09-23T15:18:49.078Z,16.30
2018-09-23T15:21:17.555Z,16.30
2018-09-23T15:23:46.007Z,16.20
2018-09-23T15:26:14.486Z,16.10
2018-09-23T15:28:42.946Z,16.10
2018-09-23T15:31:11.416Z,16.00
2018-09-23T15:33:39.957Z,16.00
2018-09-23T15:36:08.422Z,16.00
2018-09-23T15:38:36.940Z,15.90
2018-09-23T15:41:05.858Z,15.70
2018-09-23T15:43:34.323Z,15.60
2018-09-23T15:46:02.801Z,15.60
2018-09-23T15:48:31.243Z,15.50
2018-09-23T15:50:59.711Z,15.50
2018-09-23T15:53:28.159Z,15.40
2018-09-23T15:55:56.629Z,15.40
2018-09-23T15:58:25.086Z,15.30
2018-09-23T16:00:53.562Z,15.30
2018-09-23T16:03:22.030Z,15.10
2018-09-23T16:05:50.466Z,15.00
2018-09-23T16:08:18.933Z,15.00
2018-09-23T16:10:47.389Z,15.00
2018-09-23T16:13:15.852Z,15.00
2018-09-23T16:15:44.317Z,14.90
2018-09-23T16:18:13.112Z,14.60
2018-09-23T16:20:41.564Z,14.50
2018-09-23T16:23:10.044Z,14.20
2018-09-23T16:25:38.505Z,14.00
2018-09-23T16:28:07.189Z,13.90
2018-09-23T16:30:35.647Z,13.80
2018-09-23T16:33:04.152Z,13.70
2018-09-23T16:35:32.613Z,13.50
2018-09-23T16:38:01.084Z,13.40
2018-09-23T16:40:29.525Z,13.20
2018-09-23T16:42:57.982Z,13.20
2018-09-23T16:45:26.441Z,13.20
2018-09-23T16:47:54.934Z,13.20
2018-09-23T16:50:23.392Z,13.10
2018-09-23T16:52:52.034Z,12.90
2018-09-23T16:55:20.498Z,12.90
2018-09-23T16:57:49.002Z,12.80
2018-09-23T17:00:17.466Z,12.80
2018-09-23T17:02:45.922Z,12.70
2018-09-23T17:05:14.382Z,12.60
2018-09-23T17:07:42.825Z,12.70
2018-09-23T17:10:11.319Z,12.60
2018-09-23T17:12:39.809Z,12.50
2018-09-23T17:15:08.307Z,12.50
2018-09-23T17:17:36.711Z,12.40
2018-09-23T17:20:05.247Z,12.40
2018-09-23T17:22:33.665Z,12.40
2018-09-23T17:25:02.114Z,12.40
2018-09-23T17:27:30.606Z,12.30
2018-09-23T17:29:59.080Z,12.30
2018-09-23T17:32:27.478Z,12.20
2018-09-23T17:34:56.041Z,12.10
2018-09-23T17:37:24.423Z,12.10
2018-09-23T17:39:52.878Z,12.10
2018-09-23T17:42:21.344Z,12.00
2018-09-23T17:44:49.797Z,11.90
2018-09-23T17:47:18.217Z,11.90
2018-09-23T17:49:46.674Z,11.80
2018-09-23T17:52:15.160Z,11.70
2018-09-23T17:54:43.598Z,11.70
2018-09-23T17:57:12.023Z,11.70
2018-09-23T17:59:40.455Z,11.60
2018-09-23T18:02:08.949Z,11.60
2018-09-23T18:04:37.378Z,11.60
2018-09-23T18:07:05.946Z,11.50
2018-09-23T18:09:34.383Z,11.40
2018-09-23T18:12:02.826Z,11.50
2018-09-23T18:14:31.298Z,11.50
2018-09-23T18:16:59.783Z,11.40
2018-09-23T18:19:28.234Z,11.40
2018-09-23T18:21:56.684Z,11.30
2018-09-23T18:24:25.130Z,11.30
2018-09-23T18:26:53.592Z,11.30
2018-09-23T18:29:22.061Z,11.30
2018-09-23T18:31:50.513Z,11.20
2018-09-23T18:34:18.967Z,11.10
2018-09-23T18:36:47.423Z,11.10
2018-09-23T18:39:15.877Z,11.00
2018-09-23T18:41:44.305Z,11.00
2018-09-23T18:44:12.794Z,10.90
2018-09-23T18:46:41.214Z,10.90
2018-09-23T18:49:09.673Z,10.80
2018-09-23T18:51:38.104Z,10.80
2018-09-23T18:54:11.937Z,10.80
2018-09-23T18:56:40.366Z,10.80
2018-09-23T18:59:08.838Z,10.80
2018-09-23T19:01:37.274Z,10.80
2018-09-23T19:04:05.809Z,10.80
2018-09-23T19:06:34.157Z,10.60
2018-09-23T19:09:02.670Z,10.60
2018-09-23T19:11:31.126Z,10.60
2018-09-23T19:13:59.556Z,10.50
2018-09-23T19:16:30.921Z,10.40
2018-09-23T19:18:59.574Z,10.40
2018-09-23T19:21:28.890Z,10.30
2018-09-23T19:23:57.650Z,10.30
2018-09-23T19:26:26.498Z,10.30
2018-09-23T19:28:55.013Z,10.20
2018-09-23T19:31:23.493Z,10.20
2018-09-23T19:33:51.984Z,10.20
2018-09-23T19:36:20.471Z,10.20
2018-09-23T19:38:48.950Z,10.20
2018-09-23T19:41:17.431Z,10.20
2018-09-23T19:43:45.891Z,10.20
2018-09-23T19:46:14.371Z,10.20
2018-09-23T19:48:42.837Z,10.20
2018-09-23T19:51:11.317Z,10.20
2018-09-23T19:53:39.790Z,10.20
2018-09-23T19:56:08.283Z,10.20
2018-09-23T19:58:36.749Z,10.10
2018-09-23T20:01:05.282Z,10.10
2018-09-23T20:03:33.748Z,10.10
2018-09-23T20:06:02.238Z,10.10
2018-09-23T20:08:30.701Z,10.10
2018-09-23T20:10:59.210Z,10.10
2018-09-23T20:13:27.682Z,10.10
2018-09-23T20:15:56.190Z,10.00
2018-09-23T20:18:24.651Z,9.90
2018-09-23T20:20:53.142Z,9.90
2018-09-23T20:23:21.585Z,9.80
2018-09-23T20:25:50.067Z,9.70
2018-09-23T20:28:18.594Z,9.50
2018-09-23T20:30:47.080Z,9.50
2018-09-23T20:33:15.558Z,9.40
2018-09-23T20:35:44.054Z,9.40
2018-09-23T20:38:12.514Z,9.40
2018-09-23T20:40:40.994Z,9.30
2018-09-23T20:43:09.442Z,9.20
2018-09-23T20:45:37.946Z,9.10
2018-09-23T20:48:06.410Z,9.00
2018-09-23T20:50:34.943Z,8.90
2018-09-23T20:53:03.406Z,8.80
2018-09-23T20:55:31.907Z,8.70
2018-09-23T20:58:00.350Z,8.70
2018-09-23T21:00:28.843Z,8.80
2018-09-23T21:02:57.308Z,8.70
2018-09-23T21:05:25.798Z,8.70
2018-09-23T21:07:54.254Z,8.80
2018-09-23T21:10:23.432Z,8.80
2018-09-23T21:12:51.831Z,8.70
2018-09-23T21:15:20.317Z,8.80
2018-09-23T21:17:48.774Z,8.80
2018-09-23T21:20:17.221Z,8.80
2018-09-23T21:22:45.653Z,8.70
2018-09-23T21:25:14.097Z,8.80
2018-09-23T21:27:42.515Z,8.80
2018-09-23T21:30:11.850Z,8.80
2018-09-23T21:32:40.274Z,8.90
2018-09-23T21:35:08.744Z,8.80
2018-09-23T21:37:38.303Z,8.90
2018-09-23T21:40:06.946Z,8.80
2018-09-23T21:42:35.393Z,8.90
2018-09-23T21:45:03.833Z,8.80
2018-09-23T21:47:32.294Z,8.80
2018-09-23T21:50:00.716Z,8.80
2018-09-23T21:52:29.171Z,8.80
2018-09-23T21:54:57.588Z,8.80
2018-09-23T21:57:26.037Z,8.80
2018-09-23T21:59:54.478Z,8.80
2018-09-23T22:02:22.926Z,8.80
2018-09-23T22:04:51.352Z,8.80
2018-09-23T22:07:19.815Z,8.80
2018-09-23T22:09:48.266Z,8.70
2018-09-23T22:12:16.714Z,8.80
2018-09-23T22:14:45.143Z,8.80
2018-09-23T22:17:13.662Z,8.70
2018-09-23T22:19:42.124Z,8.80
2018-09-23T22:22:10.597Z,8.80
2018-09-23T22:24:39.066Z,8.80
2018-09-23T22:27:07.599Z,8.80
2018-09-23T22:29:36.054Z,8.90
2018-09-23T22:32:04.551Z,8.80
2018-09-23T22:34:32.990Z,8.80
2018-09-23T22:37:01.503Z,8.90
2018-09-23T22:39:29.961Z,8.90
2018-09-23T22:41:58.503Z,8.80
2018-09-23T22:44:26.903Z,8.70
2018-09-23T22:46:55.374Z,8.70
2018-09-23T22:49:23.810Z,8.60
2018-09-23T22:51:52.288Z,8.40
2018-09-23T22:54:20.741Z,8.30
2018-09-23T22:56:49.199Z,8.30
2018-09-23T22:59:17.629Z,8.20
2018-09-23T23:01:46.086Z,8.10
2018-09-23T23:04:14.517Z,8.00
2018-09-23T23:06:42.974Z,8.00
2018-09-23T23:09:11.406Z,8.00
2018-09-23T23:11:39.886Z,8.10
2018-09-23T23:14:08.326Z,8.20
2018-09-23T23:16:36.827Z,8.30
2018-09-23T23:19:05.306Z,8.30
2018-09-23T23:21:33.770Z,8.20
2018-09-23T23:24:02.512Z,8.20
2018-09-23T23:26:30.986Z,8.10
2018-09-23T23:28:59.429Z,8.10
2018-09-23T23:31:27.901Z,8.20
2018-09-23T23:33:56.334Z,8.20
2018-09-23T23:36:24.798Z,8.20
2018-09-23T23:38:53.248Z,8.20
2018-09-23T23:41:21.730Z,8.20
2018-09-23T23:43:50.177Z,8.20
2018-09-23T23:46:18.635Z,8.20
2018-09-23T23:48:47.091Z,8.20
2018-09-23T23:51:15.521Z,8.30
2018-09-23T23:53:43.995Z,8.30
2018-09-23T23:56:12.448Z,8.30
2018-09-23T23:58:40.919Z,8.30
